createdAt,value
2023-01-20T00:01:12.234Z,-0.89
2023-01-20T00:03:40.664Z,-0.83
2023-01-20T00:06:08.753Z,-0.84
2023-01-20T00:08:35.933Z,-0.87
2023-01-20T00:11:07.040Z,-0.88
2023-01-20T00:13:37.780Z,-0.90
2023-01-20T00:16:08.019Z,-0.96
2023-01-20T00:18:35.608Z,-0.89
2023-01-20T00:21:07.594Z,-0.88
2023-01-20T00:23:35.034Z,-0.91
2023-01-20T00:26:19.977Z,-0.92
2023-01-20T00:28:48.115Z,-0.91
2023-01-20T00:31:21.036Z,-0.91
2023-01-20T00:33:49.731Z,-0.92
2023-01-20T00:36:18.513Z,-0.86
2023-01-20T00:38:46.671Z,-0.81
2023-01-20T00:41:14.495Z,-0.81
2023-01-20T00:43:41.500Z,-0.74
2023-01-20T00:46:09.583Z,-0.75
2023-01-20T00:48:37.111Z,-0.68
2023-01-20T00:51:06.113Z,-0.67
2023-01-20T00:53:33.428Z,-0.65
2023-01-20T00:56:00.719Z,-0.64
2023-01-20T00:58:28.426Z,-0.62
2023-01-20T01:00:56.266Z,-0.59
2023-01-20T01:03:23.451Z,-0.60
2023-01-20T01:05:50.808Z,-0.56
2023-01-20T01:08:17.837Z,-0.54
2023-01-20T01:10:44.858Z,-0.49
2023-01-20T01:13:11.907Z,-0.56
2023-01-20T01:15:38.903Z,-0.45
2023-01-20T01:18:05.930Z,-0.47
2023-01-20T01:20:32.984Z,-0.48
2023-01-20T01:23:00.134Z,-0.41
2023-01-20T01:25:27.142Z,-0.42
2023-01-20T01:27:54.195Z,-0.46
2023-01-20T01:30:21.295Z,-0.44
2023-01-20T01:32:48.283Z,-0.44
2023-01-20T01:35:15.710Z,-0.43
2023-01-20T01:37:43.175Z,-0.44
2023-01-20T01:40:11.292Z,-0.42
2023-01-20T01:42:38.315Z,-0.42
2023-01-20T01:45:20.407Z,-0.37
2023-01-20T01:47:56.409Z,-0.39
2023-01-20T01:50:38.467Z,-0.41
2023-01-20T01:53:07.766Z,-0.41
2023-01-20T01:55:39.737Z,-0.39
2023-01-20T01:58:10.240Z,-0.40
2023-01-20T02:00:38.933Z,-0.34
2023-01-20T02:03:06.735Z,-0.33
2023-01-20T02:05:36.458Z,-0.32
2023-01-20T02:08:04.113Z,-0.33
2023-01-20T02:10:31.552Z,-0.32
2023-01-20T02:13:00.149Z,-0.29
2023-01-20T02:15:50.034Z,-0.27
2023-01-20T02:18:33.936Z,-0.24
2023-01-20T02:21:09.814Z,-0.22
2023-01-20T02:24:02.424Z,-0.21
2023-01-20T02:26:52.787Z,-0.17
2023-01-20T02:29:56.771Z,-0.15
2023-01-20T02:32:41.897Z,-0.14
2023-01-20T02:35:20.516Z,-0.13
2023-01-20T02:37:53.025Z,-0.17
2023-01-20T02:40:22.793Z,-0.13
2023-01-20T02:43:11.175Z,-0.19
2023-01-20T02:45:47.921Z,-0.15
2023-01-20T02:48:47.025Z,-0.15
2023-01-20T02:51:25.174Z,-0.13
2023-01-20T02:54:08.095Z,-0.16
2023-01-20T02:56:36.593Z,-0.27
2023-01-20T02:59:10.141Z,-0.24
2023-01-20T03:01:43.302Z,-0.23
2023-01-20T03:04:13.837Z,-0.29
2023-01-20T03:06:47.195Z,-0.31
2023-01-20T03:09:18.604Z,-0.25
2023-01-20T03:11:53.182Z,-0.25
2023-01-20T03:14:20.385Z,-0.23
2023-01-20T03:16:48.789Z,-0.32
2023-01-20T03:19:20.326Z,-0.28
2023-01-20T03:21:48.545Z,-0.29
2023-01-20T03:24:15.698Z,-0.28
2023-01-20T03:26:42.753Z,-0.27
2023-01-20T03:29:15.947Z,-0.27
2023-01-20T03:31:51.372Z,-0.32
2023-01-20T03:34:22.397Z,-0.34
2023-01-20T03:36:50.531Z,-0.36
2023-01-20T03:39:18.700Z,-0.37
2023-01-20T03:41:52.080Z,-0.35
2023-01-20T03:44:26.920Z,-0.33
2023-01-20T03:47:05.740Z,-0.29
2023-01-20T03:49:35.342Z,-0.28
2023-01-20T03:52:15.831Z,-0.29
2023-01-20T03:54:52.498Z,-0.39
2023-01-20T03:57:25.526Z,-0.36
2023-01-20T03:59:54.033Z,-0.36
2023-01-20T04:02:23.873Z,-0.29
2023-01-20T04:04:51.883Z,-0.35
2023-01-20T04:07:23.119Z,-0.32
2023-01-20T04:09:54.369Z,-0.33
2023-01-20T04:12:21.611Z,-0.34
2023-01-20T04:14:48.694Z,-0.30
2023-01-20T04:17:16.052Z,-0.34
2023-01-20T04:19:43.086Z,-0.33
2023-01-20T04:22:17.039Z,-0.30
2023-01-20T04:24:52.379Z,-0.36
2023-01-20T04:27:19.534Z,-0.34
2023-01-20T04:29:46.616Z,-0.34
2023-01-20T04:32:13.895Z,-0.37
2023-01-20T04:34:41.320Z,-0.45
2023-01-20T04:37:08.398Z,-0.44
2023-01-20T04:39:35.523Z,-0.47
2023-01-20T04:42:04.246Z,-0.42
2023-01-20T04:44:31.360Z,-0.42
2023-01-20T04:46:58.806Z,-0.44
2023-01-20T04:49:26.456Z,-0.42
2023-01-20T04:51:53.496Z,-0.47
2023-01-20T04:54:20.532Z,-0.39
2023-01-20T04:56:50.533Z,-0.40
2023-01-20T04:59:17.620Z,-0.41
2023-01-20T05:01:44.666Z,-0.47
2023-01-20T05:04:11.778Z,-0.41
2023-01-20T05:06:42.555Z,-0.44
2023-01-20T05:09:15.710Z,-0.47
2023-01-20T05:11:43.884Z,-0.51
2023-01-20T05:14:12.540Z,-0.52
2023-01-20T05:16:40.040Z,-0.51
2023-01-20T05:19:07.076Z,-0.50
2023-01-20T05:21:34.189Z,-0.52
2023-01-20T05:24:01.198Z,-0.52
2023-01-20T05:26:28.557Z,-0.52
2023-01-20T05:28:55.642Z,-0.52
2023-01-20T05:31:22.825Z,-0.49
2023-01-20T05:33:49.896Z,-0.50
2023-01-20T05:36:17.143Z,-0.54
2023-01-20T05:38:44.343Z,-0.49
2023-01-20T05:41:11.602Z,-0.54
2023-01-20T05:43:38.640Z,-0.44
2023-01-20T05:46:06.588Z,-0.44
2023-01-20T05:48:33.699Z,-0.40
2023-01-20T05:51:00.827Z,-0.42
2023-01-20T05:53:27.949Z,-0.42
2023-01-20T05:56:05.550Z,-0.39
2023-01-20T05:58:34.563Z,-0.40
2023-01-20T06:01:06.936Z,-0.37
2023-01-20T06:03:34.427Z,-0.35
2023-01-20T06:06:02.704Z,-0.25
2023-01-20T06:08:30.298Z,-0.18
2023-01-20T06:10:57.370Z,-0.18
2023-01-20T06:13:25.144Z,-0.14
2023-01-20T06:15:54.010Z,-0.19
2023-01-20T06:18:22.489Z,-0.05
2023-01-20T06:20:49.866Z,-0.01
2023-01-20T06:23:17.103Z,0.01
2023-01-20T06:25:44.295Z,0.02
2023-01-20T06:28:11.463Z,0.05
2023-01-20T06:30:38.746Z,0.06
2023-01-20T06:33:11.037Z,0.05
2023-01-20T06:35:38.364Z,0.03
2023-01-20T06:38:05.688Z,0.10
2023-01-20T06:40:33.077Z,0.06
2023-01-20T06:43:00.149Z,0.06
2023-01-20T06:45:27.305Z,0.00
2023-01-20T06:47:54.467Z,0.03
2023-01-20T06:50:22.039Z,-0.05
2023-01-20T06:52:49.171Z,0.02
2023-01-20T06:55:17.175Z,-0.05
2023-01-20T06:57:44.397Z,-0.04
2023-01-20T07:00:12.032Z,-0.12
2023-01-20T07:02:39.304Z,-0.04
2023-01-20T07:05:08.213Z,-0.01
2023-01-20T07:07:35.340Z,-0.20
2023-01-20T07:10:03.661Z,-0.08
2023-01-20T07:12:31.282Z,-0.17
2023-01-20T07:14:58.575Z,-0.13
2023-01-20T07:17:26.237Z,-0.19
2023-01-20T07:19:53.351Z,-0.14
2023-01-20T07:22:20.464Z,-0.13
2023-01-20T07:24:47.583Z,-0.24
2023-01-20T07:27:15.233Z,-0.23
2023-01-20T07:29:42.436Z,-0.21
2023-01-20T07:32:09.524Z,-0.17
2023-01-20T07:34:36.591Z,-0.12
2023-01-20T07:37:04.089Z,-0.12
2023-01-20T07:39:31.922Z,-0.14
2023-01-20T07:41:59.089Z,-0.09
2023-01-20T07:44:26.510Z,-0.09
2023-01-20T07:46:54.950Z,-0.04
2023-01-20T07:49:22.073Z,-0.05
2023-01-20T07:51:49.253Z,-0.25
2023-01-20T07:54:16.416Z,-0.14
2023-01-20T07:56:43.516Z,-0.07
2023-01-20T07:59:11.824Z,-0.05
2023-01-20T08:01:38.971Z,-0.05
2023-01-20T08:04:06.143Z,-0.05
2023-01-20T08:06:33.180Z,-0.07
2023-01-20T08:09:01.949Z,-0.09
2023-01-20T08:11:29.538Z,0.02
2023-01-20T08:13:56.958Z,0.01
2023-01-20T08:16:24.080Z,-0.03
2023-01-20T08:18:53.865Z,0.06
2023-01-20T08:21:27.063Z,0.09
2023-01-20T08:24:01.059Z,0.09
2023-01-20T08:26:29.739Z,0.05
2023-01-20T08:29:02.670Z,0.11
2023-01-20T08:31:30.030Z,0.09
2023-01-20T08:33:57.285Z,0.13
2023-01-20T08:36:30.278Z,0.16
2023-01-20T08:38:59.613Z,0.22
2023-01-20T08:41:29.598Z,0.21
2023-01-20T08:44:00.085Z,0.18
2023-01-20T08:46:27.956Z,0.19
2023-01-20T08:48:56.084Z,0.04
2023-01-20T08:51:33.016Z,0.12
2023-01-20T08:54:00.850Z,0.11
2023-01-20T08:56:29.093Z,0.10
2023-01-20T08:58:57.670Z,0.23
2023-01-20T09:01:28.079Z,0.25
2023-01-20T09:04:05.436Z,0.20
2023-01-20T09:06:46.094Z,0.16
2023-01-20T09:09:15.165Z,0.24
2023-01-20T09:11:44.818Z,0.19
2023-01-20T09:14:12.068Z,0.22
2023-01-20T09:16:39.105Z,0.20
2023-01-20T09:19:06.333Z,0.19
2023-01-20T09:21:33.622Z,0.15
2023-01-20T09:24:00.827Z,0.23
2023-01-20T09:26:35.680Z,0.14
2023-01-20T09:29:09.591Z,0.10
2023-01-20T09:31:39.906Z,0.15
2023-01-20T09:34:07.200Z,0.11
2023-01-20T09:36:34.285Z,0.17
2023-01-20T09:39:20.098Z,0.14
2023-01-20T09:42:19.709Z,0.11
2023-01-20T09:44:59.238Z,0.12
2023-01-20T09:47:31.315Z,0.11
2023-01-20T09:50:29.457Z,0.15
2023-01-20T09:53:25.875Z,0.17
2023-01-20T09:55:54.831Z,0.09
2023-01-20T09:58:51.771Z,0.08
2023-01-20T10:01:34.335Z,0.14
2023-01-20T10:04:13.503Z,0.02
2023-01-20T10:06:43.492Z,0.11
2023-01-20T10:09:25.002Z,0.18
2023-01-20T10:12:13.191Z,0.07
2023-01-20T10:14:50.925Z,0.12
2023-01-20T10:17:26.009Z,0.02
2023-01-20T10:20:05.198Z,0.15
2023-01-20T10:22:58.273Z,0.20
2023-01-20T10:25:31.705Z,0.20
2023-01-20T10:28:19.183Z,0.22
2023-01-20T10:30:48.003Z,0.10
2023-01-20T10:33:24.155Z,0.15
2023-01-20T10:35:54.999Z,0.22
2023-01-20T10:38:43.125Z,0.23
2023-01-20T10:41:20.275Z,0.23
2023-01-20T10:43:47.958Z,0.21
2023-01-20T10:46:46.647Z,0.09
2023-01-20T10:49:43.337Z,0.22
2023-01-20T10:52:39.326Z,0.20
2023-01-20T10:55:43.771Z,0.21
2023-01-20T10:58:25.230Z,0.27
2023-01-20T11:00:52.364Z,0.18
2023-01-20T11:03:21.710Z,0.05
2023-01-20T11:05:51.132Z,0.15
2023-01-20T11:08:23.996Z,0.25
2023-01-20T11:11:01.083Z,0.25
2023-01-20T11:13:28.165Z,0.24
2023-01-20T11:16:00.911Z,0.17
2023-01-20T11:18:34.683Z,0.18
2023-01-20T11:21:06.003Z,0.18
2023-01-20T11:23:37.742Z,0.23
2023-01-20T11:26:32.980Z,0.34
2023-01-20T11:29:09.068Z,0.33
2023-01-20T11:31:49.671Z,0.39
2023-01-20T11:34:29.132Z,0.43
2023-01-20T11:37:05.053Z,0.35
2023-01-20T11:39:34.165Z,0.49
2023-01-20T11:42:47.107Z,0.53
2023-01-20T11:45:34.840Z,0.60
2023-01-20T11:48:06.673Z,0.69
2023-01-20T11:50:50.618Z,0.77
2023-01-20T11:53:19.985Z,0.82
2023-01-20T11:55:50.587Z,0.83
2023-01-20T11:58:21.064Z,0.74
2023-01-20T12:00:51.070Z,0.81
2023-01-20T12:03:30.185Z,0.83
2023-01-20T12:06:14.825Z,0.86
2023-01-20T12:08:57.460Z,0.97
2023-01-20T12:11:30.578Z,0.99
2023-01-20T12:14:25.797Z,1.00
2023-01-20T12:17:16.293Z,0.99
2023-01-20T12:20:05.127Z,1.06
2023-01-20T12:22:41.244Z,1.05
2023-01-20T12:25:19.926Z,1.05
2023-01-20T12:28:01.246Z,1.01
2023-01-20T12:30:37.559Z,1.07
2023-01-20T12:33:05.634Z,1.03
2023-01-20T12:35:39.192Z,1.00
2023-01-20T12:38:08.366Z,1.05
2023-01-20T12:40:48.919Z,0.94
2023-01-20T12:43:30.326Z,0.99
2023-01-20T12:46:07.976Z,0.98
2023-01-20T12:49:03.007Z,0.96
2023-01-20T12:51:41.694Z,1.00
2023-01-20T12:54:54.206Z,0.98
2023-01-20T12:57:56.009Z,0.92
2023-01-20T13:00:50.875Z,0.97
2023-01-20T13:03:39.476Z,0.92
2023-01-20T13:06:30.836Z,1.00
2023-01-20T13:09:03.867Z,0.98
2023-01-20T13:11:57.507Z,0.98
2023-01-20T13:14:41.180Z,1.02
2023-01-20T13:17:13.811Z,0.89
2023-01-20T13:19:42.889Z,0.76
2023-01-20T13:22:21.096Z,0.77
2023-01-20T13:24:53.999Z,0.77
2023-01-20T13:27:27.744Z,0.67
2023-01-20T13:29:55.943Z,0.75
2023-01-20T13:32:29.651Z,0.75
2023-01-20T13:34:57.975Z,0.78
2023-01-20T13:37:27.764Z,0.77
2023-01-20T13:39:58.609Z,0.66
2023-01-20T13:42:38.535Z,0.77
2023-01-20T13:45:11.432Z,0.76
2023-01-20T13:47:52.437Z,0.75
2023-01-20T13:50:25.051Z,0.73
2023-01-20T13:52:52.284Z,0.73
2023-01-20T13:55:34.260Z,0.70
2023-01-20T13:58:01.350Z,0.68
2023-01-20T14:00:29.735Z,0.69
2023-01-20T14:02:56.841Z,0.73
2023-01-20T14:05:31.747Z,0.71
2023-01-20T14:07:59.602Z,0.73
2023-01-20T14:10:27.197Z,0.73
2023-01-20T14:12:54.320Z,0.64
2023-01-20T14:15:34.813Z,0.67
2023-01-20T14:18:02.472Z,0.71
2023-01-20T14:20:30.676Z,0.68
2023-01-20T14:23:25.209Z,0.65
2023-01-20T14:26:28.830Z,0.66
2023-01-20T14:28:59.390Z,0.69
2023-01-20T14:31:41.966Z,0.51
2023-01-20T14:34:43.011Z,0.69
2023-01-20T14:37:30.804Z,0.67
2023-01-20T14:40:17.887Z,0.67
2023-01-20T14:43:07.821Z,0.70
2023-01-20T14:45:36.952Z,0.69
2023-01-20T14:48:05.138Z,0.74
2023-01-20T14:50:33.637Z,0.77
2023-01-20T14:53:00.951Z,0.78
2023-01-20T14:55:28.992Z,0.82
2023-01-20T14:57:57.045Z,0.84
2023-01-20T15:00:30.301Z,0.88
2023-01-20T15:03:12.082Z,0.93
2023-01-20T15:05:52.555Z,0.90
2023-01-20T15:08:26.744Z,0.94
2023-01-20T15:11:20.175Z,0.98
2023-01-20T15:13:53.857Z,0.99
2023-01-20T15:16:26.725Z,0.99
2023-01-20T15:19:17.582Z,0.99
2023-01-20T15:21:47.209Z,1.02
2023-01-20T15:24:31.622Z,1.01
2023-01-20T15:27:01.469Z,1.00
2023-01-20T15:29:36.570Z,1.05
2023-01-20T15:32:11.953Z,1.04
2023-01-20T15:34:39.161Z,1.06
2023-01-20T15:37:18.474Z,1.04
2023-01-20T15:39:45.542Z,1.08
2023-01-20T15:42:13.202Z,1.05
2023-01-20T15:44:40.271Z,1.03
2023-01-20T15:47:29.171Z,1.06
2023-01-20T15:49:59.176Z,1.03
2023-01-20T15:52:26.551Z,1.06
2023-01-20T15:54:54.034Z,1.09
2023-01-20T15:57:21.039Z,1.06
2023-01-20T15:59:49.924Z,1.10
2023-01-20T16:02:20.041Z,1.12
2023-01-20T16:04:47.256Z,1.13
2023-01-20T16:07:16.978Z,1.12
2023-01-20T16:09:44.862Z,1.13
2023-01-20T16:12:13.129Z,1.15
2023-01-20T16:14:41.246Z,1.08
2023-01-20T16:17:30.643Z,1.14
2023-01-20T16:19:58.341Z,1.18
2023-01-20T16:22:26.103Z,1.17
2023-01-20T16:24:53.259Z,1.15
2023-01-20T16:27:22.472Z,1.12
2023-01-20T16:29:49.984Z,1.09
2023-01-20T16:32:19.100Z,1.16
2023-01-20T16:34:47.412Z,1.16
2023-01-20T16:37:14.749Z,1.19
2023-01-20T16:39:41.838Z,1.20
2023-01-20T16:42:11.515Z,1.20
2023-01-20T16:44:38.945Z,1.18
2023-01-20T16:47:08.142Z,1.19
2023-01-20T16:49:35.269Z,1.20
2023-01-20T16:52:02.411Z,1.19
2023-01-20T16:54:29.428Z,1.13
2023-01-20T16:56:56.475Z,1.18
2023-01-20T16:59:24.027Z,1.15
2023-01-20T17:01:51.119Z,1.15
2023-01-20T17:04:18.214Z,1.13
2023-01-20T17:06:45.391Z,1.10
2023-01-20T17:09:12.462Z,1.04
2023-01-20T17:11:40.452Z,1.03
2023-01-20T17:14:09.337Z,0.98
2023-01-20T17:16:37.479Z,0.92
2023-01-20T17:19:05.476Z,0.89
2023-01-20T17:21:37.132Z,0.85
2023-01-20T17:24:05.180Z,0.78
2023-01-20T17:26:32.701Z,0.80
2023-01-20T17:29:02.738Z,0.73
2023-01-20T17:31:31.863Z,0.69
2023-01-20T17:33:58.975Z,0.63
2023-01-20T17:36:26.400Z,0.56
2023-01-20T17:38:53.740Z,0.54
2023-01-20T17:41:21.047Z,0.50
2023-01-20T17:43:48.220Z,0.46
2023-01-20T17:46:19.530Z,0.43
2023-01-20T17:48:46.977Z,0.38
2023-01-20T17:51:19.318Z,0.26
2023-01-20T17:53:47.290Z,0.34
2023-01-20T17:56:15.668Z,0.30
2023-01-20T17:58:44.666Z,0.26
2023-01-20T18:01:17.705Z,0.24
2023-01-20T18:03:45.900Z,0.22
2023-01-20T18:06:15.402Z,0.19
2023-01-20T18:08:43.533Z,0.14
2023-01-20T18:11:15.263Z,0.09
2023-01-20T18:13:45.562Z,0.07
2023-01-20T18:16:14.830Z,0.03
2023-01-20T18:18:43.824Z,0.05
2023-01-20T18:21:17.299Z,0.01
2023-01-20T18:23:45.371Z,0.01
2023-01-20T18:26:14.501Z,-0.08
2023-01-20T18:28:42.925Z,-0.07
2023-01-20T18:31:18.735Z,-0.06
2023-01-20T18:33:51.256Z,-0.09
2023-01-20T18:36:27.132Z,-0.12
2023-01-20T18:38:57.575Z,-0.21
2023-01-20T18:41:26.728Z,-0.18
2023-01-20T18:43:54.219Z,-0.23
2023-01-20T18:46:21.591Z,-0.22
2023-01-20T18:48:51.843Z,-0.28
2023-01-20T18:51:21.045Z,-0.29
2023-01-20T18:54:20.817Z,-0.32
2023-01-20T18:56:48.222Z,-0.39
2023-01-20T18:59:15.340Z,-0.39
2023-01-20T19:01:42.881Z,-0.49
2023-01-20T19:04:12.455Z,-0.46
2023-01-20T19:06:42.166Z,-0.53
2023-01-20T19:09:10.493Z,-0.49
2023-01-20T19:11:40.528Z,-0.50
2023-01-20T19:14:11.366Z,-0.55
2023-01-20T19:16:39.303Z,-0.55
2023-01-20T19:19:07.311Z,-0.60
2023-01-20T19:21:36.312Z,-0.62
2023-01-20T19:24:06.048Z,-0.64
2023-01-20T19:26:37.810Z,-0.67
2023-01-20T19:29:15.853Z,-0.74
2023-01-20T19:31:43.119Z,-0.78
2023-01-20T19:34:10.610Z,-0.78
2023-01-20T19:36:37.954Z,-0.84
2023-01-20T19:39:05.793Z,-0.81
2023-01-20T19:41:34.251Z,-0.85
2023-01-20T19:44:03.205Z,-0.85
2023-01-20T19:46:33.683Z,-0.85
2023-01-20T19:49:02.244Z,-0.90
2023-01-20T19:51:32.065Z,-0.89
2023-01-20T19:54:01.432Z,-0.91
2023-01-20T19:56:32.595Z,-0.90
2023-01-20T19:59:00.859Z,-0.91
2023-01-20T20:01:36.892Z,-0.89
2023-01-20T20:04:10.526Z,-0.91
2023-01-20T20:06:39.429Z,-0.93
2023-01-20T20:09:10.842Z,-0.93
2023-01-20T20:11:38.488Z,-0.93
2023-01-20T20:14:07.498Z,-0.99
2023-01-20T20:16:36.495Z,-0.99
2023-01-20T20:19:04.812Z,-0.99
2023-01-20T20:21:32.022Z,-1.01
2023-01-20T20:24:00.435Z,-1.05
2023-01-20T20:26:30.714Z,-0.98
2023-01-20T20:29:02.160Z,-0.99
2023-01-20T20:31:30.074Z,-1.01
2023-01-20T20:33:58.765Z,-1.02
2023-01-20T20:36:31.059Z,-1.00
2023-01-20T20:39:00.094Z,-1.01
2023-01-20T20:41:29.063Z,-1.01
2023-01-20T20:43:57.114Z,-1.01
2023-01-20T20:46:26.029Z,-1.03
2023-01-20T20:48:59.403Z,-1.04
2023-01-20T20:51:28.555Z,-1.08
2023-01-20T20:53:56.609Z,-1.09
2023-01-20T20:56:27.751Z,-1.15
2023-01-20T20:59:02.009Z,-1.19
2023-01-20T21:01:34.149Z,-1.28
2023-01-20T21:04:04.346Z,-1.21
2023-01-20T21:06:32.713Z,-1.27
2023-01-20T21:09:00.483Z,-1.28
2023-01-20T21:11:28.425Z,-1.28
2023-01-20T21:13:56.379Z,-1.29
2023-01-20T21:16:25.071Z,-1.29
2023-01-20T21:18:54.592Z,-1.31
2023-01-20T21:21:22.392Z,-1.34
2023-01-20T21:23:51.822Z,-1.34
2023-01-20T21:26:19.833Z,-1.42
2023-01-20T21:28:49.289Z,-1.36
2023-01-20T21:31:25.163Z,-1.36
2023-01-20T21:33:55.092Z,-1.35
2023-01-20T21:36:22.471Z,-1.38
2023-01-20T21:38:49.764Z,-1.35
2023-01-20T21:41:17.812Z,-1.32
2023-01-20T21:44:05.792Z,-1.31
2023-01-20T21:46:39.232Z,-1.30
2023-01-20T21:49:28.832Z,-1.32
2023-01-20T21:52:15.417Z,-1.31
2023-01-20T21:54:44.790Z,-1.33
2023-01-20T21:57:11.940Z,-1.28
2023-01-20T21:59:39.315Z,-1.31
2023-01-20T22:02:07.467Z,-1.26
2023-01-20T22:04:34.643Z,-1.29
2023-01-20T22:07:01.820Z,-1.30
2023-01-20T22:09:28.957Z,-1.29
2023-01-20T22:11:56.258Z,-1.26
2023-01-20T22:14:23.409Z,-1.26
2023-01-20T22:16:50.479Z,-1.26
2023-01-20T22:19:17.802Z,-1.31
2023-01-20T22:21:44.950Z,-1.33
2023-01-20T22:24:12.173Z,-1.30
2023-01-20T22:26:39.755Z,-1.32
2023-01-20T22:29:07.259Z,-1.37
2023-01-20T22:31:34.495Z,-1.33
2023-01-20T22:34:06.202Z,-1.32
2023-01-20T22:36:33.969Z,-1.34
2023-01-20T22:39:01.976Z,-1.32
2023-01-20T22:41:29.114Z,-1.33
2023-01-20T22:43:56.630Z,-1.34
2023-01-20T22:46:26.256Z,-1.27
2023-01-20T22:48:54.430Z,-1.30
2023-01-20T22:51:24.514Z,-1.34
2023-01-20T22:54:00.258Z,-1.30
2023-01-20T22:56:30.625Z,-1.36
2023-01-20T22:58:59.416Z,-1.33
2023-01-20T23:01:29.964Z,-1.33
2023-01-20T23:03:59.343Z,-1.34
2023-01-20T23:06:28.356Z,-1.35
2023-01-20T23:08:56.276Z,-1.43
2023-01-20T23:11:24.054Z,-1.37
2023-01-20T23:13:52.193Z,-1.38
2023-01-20T23:16:22.452Z,-1.41
2023-01-20T23:18:51.082Z,-1.42
2023-01-20T23:21:19.926Z,-1.43
2023-01-20T23:23:56.340Z,-1.47
2023-01-20T23:26:26.403Z,-1.39
2023-01-20T23:28:53.890Z,-1.41
2023-01-20T23:31:23.574Z,-1.45
2023-01-20T23:33:50.734Z,-1.46
2023-01-20T23:36:21.794Z,-1.46
2023-01-20T23:38:49.080Z,-1.47
2023-01-20T23:41:16.369Z,-1.48
2023-01-20T23:43:44.213Z,-1.56
2023-01-20T23:46:11.824Z,-1.54
2023-01-20T23:48:39.228Z,-1.52
2023-01-20T23:51:07.123Z,-1.57
2023-01-20T23:53:38.255Z,-1.60
2023-01-20T23:56:10.376Z,-1.58
2023-01-20T23:58:37.436Z,-1.64
